Celik 1 — 9HKY9 — position and weather

sailwx.info

Track history (hours):
 
Tides and Currents Weather Stations Pressure Air Temp Water Temp Dewpoint Dewpoint Depression Visibility Wind Speed Wind Dir Waves Ship Positions

Celik 1

Last reported at 2015-Sep-03 03:33 UTC. Time now 2015-Sep-03 10:54 UTC.
Position N 45°08' E 029°49'.

Length 121 m; draft 4.5 m.

Type: Cargo ship. MMSI: 249114000.

Date/timePositionNaut miles runAvg speedWind from/ knotsBaromVisibWave heightAir tempDewpointWater temp
2015-Sep-03 03:33N 45°08' E 029°49'1 0.6
2015-Sep-03 02:09N 45°09' E 029°49'0 0.0
2015-Sep-03 01:33N 45°09' E 029°49'0 0.0
2015-Sep-03 00:33N 45°09' E 029°49'0 0.0
2015-Sep-02 23:33N 45°09' E 029°49'0 0.0
2015-Sep-02 22:30N 45°09' E 029°49'0 0.0
2015-Sep-02 21:30N 45°09' E 029°49'0 0.1
2015-Sep-02 20:33N 45°09' E 029°49'9 9.3
2015-Sep-02 19:33N 45°01' E 029°54'1410.6
2015-Sep-02 18:13N 44°46' E 029°55'810.3
2015-Sep-02 17:25N 44°38' E 029°55'910.5
2015-Sep-02 16:33N 44°29' E 029°56'1110.7
2015-Sep-02 15:33N 44°19' E 029°56'202 9.0
2015-Sep-01 17:07N 41°01' E 029°00'5 6.8
2015-Sep-01 16:26N 40°56' E 028°59'4 0.9
2015-Sep-01 11:28N 40°58' E 028°54'0 0.0
2015-Sep-01 10:04N 40°58' E 028°54'0 0.1
2015-Sep-01 09:04N 40°58' E 028°54'0 0.0
2015-Aug-31 19:20N 40°58' E 028°53'0 0.0
2015-Aug-31 18:32N 40°58' E 028°53'0 0.1
2015-Aug-31 17:14N 40°58' E 028°54'5 7.7
2015-Aug-31 16:33N 40°55' E 028°59'9 7.1
2015-Aug-31 15:15N 40°50' E 029°09'4 5.4
2015-Aug-31 14:33N 40°50' E 029°14'0 0.0
2015-Aug-31 13:19N 40°50' E 029°14'0 0.0
2015-Aug-31 12:31N 40°50' E 029°14'0 0.1
2015-Aug-31 11:31N 40°51' E 029°14'0 0.0
2015-Aug-31 10:25N 40°51' E 029°14'0 0.0
2015-Aug-31 09:31N 40°51' E 029°14'0 0.1
2015-Aug-31 08:19N 40°50' E 029°14'0 0.0
2015-Aug-31 07:25N 40°50' E 029°14'  
2015-Aug-29 03:22N 40°50' E 029°14'0 0.0
2015-Aug-29 02:22N 40°50' E 029°14'0 0.0
2015-Aug-29 01:28N 40°50' E 029°14'0 0.0
2015-Aug-29 00:28N 40°50' E 029°14'0 0.0
2015-Aug-28 23:28N 40°50' E 029°14'0 0.0
2015-Aug-28 22:28N 40°50' E 029°14'0 0.0
2015-Aug-28 21:22N 40°50' E 029°14'0 0.0
2015-Aug-28 20:22N 40°50' E 029°14'0 0.0
2015-Aug-28 19:32N 40°50' E 029°14'0 0.0
2015-Aug-28 18:32N 40°50' E 029°14'0 0.0
2015-Aug-28 17:20N 40°50' E 029°14'0 0.0
2015-Aug-28 16:32N 40°50' E 029°14'0 0.0
2015-Aug-28 13:20N 40°50' E 029°14'0 0.0
2015-Aug-28 12:14N 40°50' E 029°14'0 0.0
2015-Aug-28 11:26N 40°50' E 029°14'0 0.0
2015-Aug-28 10:28N 40°50' E 029°14'0 0.1
2015-Aug-28 09:28N 40°51' E 029°14'0 0.0
2015-Aug-28 07:04N 40°50' E 029°14'0 0.0
2015-Aug-28 06:16N 40°50' E 029°14'0 0.0
2015-Aug-28 05:28N 40°50' E 029°14'0 0.0
2015-Aug-28 04:28N 40°50' E 029°14'0 0.0
2015-Aug-28 03:28N 40°50' E 029°14'0 0.0
2015-Aug-28 02:22N 40°50' E 029°14'0 0.0
2015-Aug-28 01:28N 40°50' E 029°14'0 0.0
2015-Aug-28 00:22N 40°50' E 029°14'0 0.0
2015-Aug-27 23:28N 40°50' E 029°14'0 0.0
2015-Aug-27 22:28N 40°50' E 029°14'0 0.0
2015-Aug-27 21:22N 40°50' E 029°14'0 0.0
2015-Aug-27 20:22N 40°50' E 029°14'0 0.0
2015-Aug-27 19:22N 40°50' E 029°14'0 0.0
2015-Aug-27 18:31N 40°50' E 029°14'0 0.0
2015-Aug-27 17:31N 40°50' E 029°14'0 0.0
2015-Aug-27 16:31N 40°50' E 029°14'0 0.0
2015-Aug-27 15:25N 40°50' E 029°14'0 0.0
2015-Aug-27 14:31N 40°50' E 029°14'0 0.0
2015-Aug-27 13:19N 40°50' E 029°14'0 0.0
2015-Aug-27 12:13N 40°50' E 029°14'0 0.0
2015-Aug-27 11:31N 40°50' E 029°14'0 0.0
2015-Aug-27 10:31N 40°50' E 029°14'0 0.0
2015-Aug-27 09:31N 40°50' E 029°14'0 0.0
2015-Aug-27 08:31N 40°50' E 029°14'223 5.3
2015-Aug-25 14:17N 37°48' E 026°29'  
Track history (hours):
 
Tides and Currents Weather Stations Pressure Air Temp Water Temp Dewpoint Dewpoint Depression Visibility Wind Speed Wind Dir Waves Ship Positions

Celik 1

Last reported at 2015-Sep-03 03:33 UTC. Time now 2015-Sep-03 10:54 UTC.
Position N 45°08' E 029°49'.

Length 121 m; draft 4.5 m.

Type: Cargo ship. MMSI: 249114000.

Date/timePositionNaut miles runAvg speedWind from/ knotsBaromVisibWave heightAir tempDewpointWater temp
2015-Sep-03 03:33N 45°08' E 029°49'1 0.6
2015-Sep-03 02:09N 45°09' E 029°49'0 0.0
2015-Sep-03 01:33N 45°09' E 029°49'0 0.0
2015-Sep-03 00:33N 45°09' E 029°49'0 0.0
2015-Sep-02 23:33N 45°09' E 029°49'0 0.0
2015-Sep-02 22:30N 45°09' E 029°49'0 0.0
2015-Sep-02 21:30N 45°09' E 029°49'0 0.1
2015-Sep-02 20:33N 45°09' E 029°49'9 9.3
2015-Sep-02 19:33N 45°01' E 029°54'1410.6
2015-Sep-02 18:13N 44°46' E 029°55'810.3
2015-Sep-02 17:25N 44°38' E 029°55'910.5
2015-Sep-02 16:33N 44°29' E 029°56'1110.7
2015-Sep-02 15:33N 44°19' E 029°56'202 9.0
2015-Sep-01 17:07N 41°01' E 029°00'5 6.8
2015-Sep-01 16:26N 40°56' E 028°59'4 0.9
2015-Sep-01 11:28N 40°58' E 028°54'0 0.0
2015-Sep-01 10:04N 40°58' E 028°54'0 0.1
2015-Sep-01 09:04N 40°58' E 028°54'0 0.0
2015-Aug-31 19:20N 40°58' E 028°53'0 0.0
2015-Aug-31 18:32N 40°58' E 028°53'0 0.1
2015-Aug-31 17:14N 40°58' E 028°54'5 7.7
2015-Aug-31 16:33N 40°55' E 028°59'9 7.1
2015-Aug-31 15:15N 40°50' E 029°09'4 5.4
2015-Aug-31 14:33N 40°50' E 029°14'0 0.0
2015-Aug-31 13:19N 40°50' E 029°14'0 0.0
2015-Aug-31 12:31N 40°50' E 029°14'0 0.1
2015-Aug-31 11:31N 40°51' E 029°14'0 0.0
2015-Aug-31 10:25N 40°51' E 029°14'0 0.0
2015-Aug-31 09:31N 40°51' E 029°14'0 0.1
2015-Aug-31 08:19N 40°50' E 029°14'0 0.0
2015-Aug-31 07:25N 40°50' E 029°14'  
2015-Aug-29 03:22N 40°50' E 029°14'0 0.0
2015-Aug-29 02:22N 40°50' E 029°14'0 0.0
2015-Aug-29 01:28N 40°50' E 029°14'0 0.0
2015-Aug-29 00:28N 40°50' E 029°14'0 0.0
2015-Aug-28 23:28N 40°50' E 029°14'0 0.0
2015-Aug-28 22:28N 40°50' E 029°14'0 0.0
2015-Aug-28 21:22N 40°50' E 029°14'0 0.0
2015-Aug-28 20:22N 40°50' E 029°14'0 0.0
2015-Aug-28 19:32N 40°50' E 029°14'0 0.0
2015-Aug-28 18:32N 40°50' E 029°14'0 0.0
2015-Aug-28 17:20N 40°50' E 029°14'0 0.0
2015-Aug-28 16:32N 40°50' E 029°14'0 0.0
2015-Aug-28 13:20N 40°50' E 029°14'0 0.0
2015-Aug-28 12:14N 40°50' E 029°14'0 0.0
2015-Aug-28 11:26N 40°50' E 029°14'0 0.0
2015-Aug-28 10:28N 40°50' E 029°14'0 0.1
2015-Aug-28 09:28N 40°51' E 029°14'0 0.0
2015-Aug-28 07:04N 40°50' E 029°14'0 0.0
2015-Aug-28 06:16N 40°50' E 029°14'0 0.0
2015-Aug-28 05:28N 40°50' E 029°14'0 0.0
2015-Aug-28 04:28N 40°50' E 029°14'0 0.0
2015-Aug-28 03:28N 40°50' E 029°14'0 0.0
2015-Aug-28 02:22N 40°50' E 029°14'0 0.0
2015-Aug-28 01:28N 40°50' E 029°14'0 0.0
2015-Aug-28 00:22N 40°50' E 029°14'0 0.0
2015-Aug-27 23:28N 40°50' E 029°14'0 0.0
2015-Aug-27 22:28N 40°50' E 029°14'0 0.0
2015-Aug-27 21:22N 40°50' E 029°14'0 0.0
2015-Aug-27 20:22N 40°50' E 029°14'0 0.0
2015-Aug-27 19:22N 40°50' E 029°14'0 0.0
2015-Aug-27 18:31N 40°50' E 029°14'0 0.0
2015-Aug-27 17:31N 40°50' E 029°14'0 0.0
2015-Aug-27 16:31N 40°50' E 029°14'0 0.0
2015-Aug-27 15:25N 40°50' E 029°14'0 0.0
2015-Aug-27 14:31N 40°50' E 029°14'0 0.0
2015-Aug-27 13:19N 40°50' E 029°14'0 0.0
2015-Aug-27 12:13N 40°50' E 029°14'0 0.0
2015-Aug-27 11:31N 40°50' E 029°14'0 0.0
2015-Aug-27 10:31N 40°50' E 029°14'0 0.0
2015-Aug-27 09:31N 40°50' E 029°14'0 0.0
2015-Aug-27 08:31N 40°50' E 029°14'223 5.3
2015-Aug-25 14:17N 37°48' E 026°29'  

Dump ship's entire track history